createdAt,value
2018-08-16T00:02:20.805Z,14.38
2018-08-16T00:04:51.458Z,14.45
2018-08-16T00:07:21.024Z,14.49
2018-08-16T00:09:50.235Z,14.58
2018-08-16T00:12:20.256Z,14.63
2018-08-16T00:14:49.823Z,14.59
2018-08-16T00:17:22.419Z,14.62
2018-08-16T00:19:52.828Z,14.66
2018-08-16T00:22:24.472Z,14.72
2018-08-16T00:24:54.220Z,14.17
2018-08-16T00:27:23.616Z,14.63
2018-08-16T00:29:53.136Z,14.67
2018-08-16T00:32:24.679Z,14.53
2018-08-16T00:34:54.857Z,14.49
2018-08-16T00:37:24.307Z,14.46
2018-08-16T00:39:53.799Z,14.39
2018-08-16T00:42:26.375Z,14.29
2018-08-16T00:44:56.076Z,14.32
2018-08-16T00:47:25.939Z,14.34
2018-08-16T00:49:56.944Z,14.33
2018-08-16T00:52:25.634Z,14.30
2018-08-16T00:54:55.940Z,14.29
2018-08-16T00:57:29.526Z,14.21
2018-08-16T00:59:57.906Z,14.22
2018-08-16T01:02:27.507Z,14.19
2018-08-16T01:04:56.183Z,14.15
2018-08-16T01:07:25.484Z,14.12
2018-08-16T01:09:56.373Z,14.13
2018-08-16T01:12:25.223Z,14.12
2018-08-16T01:14:54.868Z,14.00
2018-08-16T01:17:25.777Z,13.93
2018-08-16T01:19:55.879Z,13.90
2018-08-16T01:22:25.549Z,13.79
2018-08-16T01:24:58.983Z,13.86
2018-08-16T01:27:29.723Z,13.88
2018-08-16T01:29:59.160Z,13.94
2018-08-16T01:32:27.552Z,13.99
2018-08-16T01:35:02.198Z,13.97
2018-08-16T01:37:31.928Z,14.00
2018-08-16T01:40:03.591Z,13.99
2018-08-16T01:42:34.095Z,13.91
2018-08-16T01:45:02.861Z,13.95
2018-08-16T01:47:31.923Z,13.97
2018-08-16T01:50:01.950Z,13.92
2018-08-16T01:52:34.060Z,13.87
2018-08-16T01:55:04.286Z,13.84
2018-08-16T01:57:36.042Z,13.79
2018-08-16T02:00:10.522Z,13.78
2018-08-16T02:02:40.484Z,13.78
2018-08-16T02:05:11.416Z,13.75
2018-08-16T02:07:40.173Z,13.66
2018-08-16T02:10:13.668Z,13.63
2018-08-16T02:12:43.584Z,13.66
2018-08-16T02:15:13.693Z,13.69
2018-08-16T02:17:42.868Z,13.73
2018-08-16T02:20:14.596Z,13.66
2018-08-16T02:22:45.285Z,13.69
2018-08-16T02:25:16.943Z,13.68
2018-08-16T02:27:45.857Z,13.64
2018-08-16T02:30:15.821Z,13.59
2018-08-16T02:32:47.060Z,13.30
2018-08-16T02:35:16.848Z,13.47
2018-08-16T02:37:46.704Z,13.58
2018-08-16T02:40:17.508Z,13.60
2018-08-16T02:42:47.652Z,13.58
2018-08-16T02:45:17.591Z,13.60
2018-08-16T02:47:46.908Z,13.58
2018-08-16T02:50:15.862Z,13.54
2018-08-16T02:52:45.960Z,13.44
2018-08-16T02:55:14.716Z,13.33
2018-08-16T02:57:45.640Z,13.25
2018-08-16T03:00:14.949Z,13.23
2018-08-16T03:02:45.039Z,13.21
2018-08-16T03:05:13.998Z,13.16
2018-08-16T03:07:43.584Z,13.17
2018-08-16T03:10:12.024Z,13.20
2018-08-16T03:12:42.436Z,13.24
2018-08-16T03:15:11.741Z,13.27
2018-08-16T03:17:40.675Z,13.26
2018-08-16T03:20:12.608Z,13.19
2018-08-16T03:22:43.431Z,13.26
2018-08-16T03:25:11.915Z,13.26
2018-08-16T03:27:41.345Z,13.23
2018-08-16T03:30:10.924Z,13.15
2018-08-16T03:32:40.932Z,13.13
2018-08-16T03:35:09.763Z,13.11
2018-08-16T03:37:40.066Z,13.05
2018-08-16T03:40:09.930Z,12.95
2018-08-16T03:42:39.578Z,12.98
2018-08-16T03:45:09.711Z,13.04
2018-08-16T03:47:38.864Z,13.05
2018-08-16T03:50:09.992Z,13.06
2018-08-16T03:52:40.452Z,13.00
2018-08-16T03:55:10.964Z,13.02
2018-08-16T04:00:15.305Z,12.97
2018-08-16T04:02:45.583Z,12.83
2018-08-16T04:05:15.017Z,12.92
2018-08-16T04:07:48.061Z,12.97
2018-08-16T04:10:17.626Z,12.95
2018-08-16T04:12:47.105Z,12.95
2018-08-16T04:15:16.946Z,12.88
2018-08-16T04:17:46.142Z,12.80
2018-08-16T04:20:18.104Z,12.72
2018-08-16T04:22:47.188Z,12.75
2018-08-16T04:25:17.208Z,12.80
2018-08-16T04:29:15.817Z,12.82
2018-08-16T04:31:47.784Z,12.68
2018-08-16T04:34:16.427Z,12.75
2018-08-16T04:36:46.393Z,12.82
2018-08-16T04:39:16.158Z,12.90
2018-08-16T04:41:45.691Z,12.92
2018-08-16T04:44:16.224Z,12.96
2018-08-16T04:46:46.364Z,13.04
2018-08-16T04:49:18.351Z,13.10
2018-08-16T04:51:47.590Z,13.27
2018-08-16T04:55:41.188Z,13.23
2018-08-16T04:58:13.125Z,13.38
2018-08-16T05:00:43.899Z,13.49
2018-08-16T05:03:15.401Z,13.63
2018-08-16T05:05:44.575Z,13.86
2018-08-16T05:08:13.707Z,14.10
2018-08-16T05:10:43.152Z,14.24
2018-08-16T05:13:12.418Z,14.44
2018-08-16T05:15:42.176Z,14.60
2018-08-16T05:18:11.190Z,14.90
2018-08-16T05:20:41.244Z,15.12
2018-08-16T05:23:10.681Z,15.36
2018-08-16T05:25:40.137Z,15.47
2018-08-16T05:28:09.472Z,15.64
2018-08-16T05:30:41.435Z,15.93
2018-08-16T05:33:17.385Z,16.06
2018-08-16T05:38:23.769Z,15.88
2018-08-16T05:40:55.025Z,14.87
2018-08-16T05:43:24.677Z,15.59
2018-08-16T05:45:53.928Z,15.40
2018-08-16T05:48:23.868Z,15.33
2018-08-16T05:50:52.979Z,15.91
2018-08-16T05:53:23.782Z,16.36
2018-08-16T05:55:52.831Z,16.70
2018-08-16T05:58:24.167Z,16.66
2018-08-16T06:00:54.084Z,17.74
2018-08-16T06:03:24.420Z,17.01
2018-08-16T06:05:53.559Z,17.06
2018-08-16T06:08:24.420Z,17.37
2018-08-16T06:10:53.147Z,16.85
2018-08-16T06:13:23.633Z,17.02
2018-08-16T06:15:52.799Z,16.93
2018-08-16T06:18:24.353Z,17.35
2018-08-16T06:20:53.679Z,18.45
2018-08-16T06:23:22.739Z,17.40
2018-08-16T06:25:51.437Z,17.41
2018-08-16T06:28:21.323Z,18.83
2018-08-16T06:30:51.200Z,19.44
2018-08-16T06:33:19.675Z,18.63
2018-08-16T06:35:48.721Z,18.22
2018-08-16T06:38:18.419Z,18.34
2018-08-16T06:40:46.871Z,18.69
2018-08-16T06:43:15.267Z,18.34
2018-08-16T06:45:44.689Z,18.89
2018-08-16T06:48:15.044Z,19.12
2018-08-16T06:50:43.719Z,18.34
2018-08-16T06:53:12.120Z,19.47
2018-08-16T06:55:41.287Z,19.28
2018-08-16T06:58:10.590Z,19.71
2018-08-16T07:00:41.819Z,19.58
2018-08-16T07:03:10.294Z,19.83
2018-08-16T07:05:39.523Z,20.33
2018-08-16T07:08:08.123Z,21.00
2018-08-16T07:10:37.209Z,20.94
2018-08-16T07:13:05.914Z,20.85
2018-08-16T07:15:36.266Z,21.09
2018-08-16T07:18:06.555Z,21.70
2018-08-16T07:20:35.445Z,21.85
2018-08-16T07:23:04.292Z,22.12
2018-08-16T07:25:35.026Z,23.18
2018-08-16T07:28:05.274Z,23.45
2018-08-16T07:30:34.655Z,24.12
2018-08-16T07:33:04.716Z,22.71
2018-08-16T07:35:35.825Z,22.34
2018-08-16T07:38:05.310Z,22.13
2018-08-16T07:40:33.927Z,23.09
2018-08-16T07:43:03.854Z,23.81
2018-08-16T07:45:32.363Z,24.09
2018-08-16T07:48:02.392Z,23.60
2018-08-16T07:50:30.964Z,24.08
2018-08-16T07:52:59.571Z,26.35
2018-08-16T07:55:28.667Z,27.43
2018-08-16T07:57:57.019Z,27.10
2018-08-16T08:00:25.623Z,26.08
2018-08-16T08:02:53.974Z,26.35
2018-08-16T08:05:23.308Z,26.93
2018-08-16T08:07:55.265Z,26.44
2018-08-16T08:10:25.077Z,26.85
2018-08-16T08:12:54.349Z,27.32
2018-08-16T08:15:22.851Z,28.26
2018-08-16T08:17:51.250Z,28.53
2018-08-16T08:20:19.629Z,29.48
2018-08-16T08:22:48.600Z,29.61
2018-08-16T08:25:18.893Z,29.25
2018-08-16T08:27:47.862Z,29.35
2018-08-16T08:30:19.113Z,29.66
2018-08-16T08:32:47.967Z,29.13
2018-08-16T08:35:17.844Z,27.70
2018-08-16T08:38:00.019Z,30.04
2018-08-16T08:40:32.779Z,29.52
2018-08-16T08:43:01.412Z,30.98
2018-08-16T08:45:31.075Z,30.04
2018-08-16T08:48:00.149Z,30.26
2018-08-16T08:50:30.401Z,29.13
2018-08-16T08:53:09.920Z,29.85
2018-08-16T08:55:49.982Z,28.44
2018-08-16T08:58:31.053Z,28.07
2018-08-16T09:01:00.000Z,28.73
2018-08-16T09:03:29.935Z,28.84
2018-08-16T09:05:58.766Z,27.56
2018-08-16T09:08:29.469Z,27.36
2018-08-16T09:11:19.374Z,27.76
2018-08-16T09:14:01.468Z,27.97
2018-08-16T09:16:34.939Z,28.91
2018-08-16T09:19:04.856Z,28.51
2018-08-16T09:21:34.605Z,27.71
2018-08-16T09:24:06.290Z,28.06
2018-08-16T09:26:41.751Z,28.87
2018-08-16T09:30:21.613Z,29.16
2018-08-16T09:33:02.577Z,28.94
2018-08-16T09:35:32.753Z,29.33
2018-08-16T09:38:02.768Z,30.40
2018-08-16T09:40:32.482Z,31.07
2018-08-16T09:43:06.339Z,30.45
2018-08-16T09:45:46.421Z,29.37
2018-08-16T09:48:26.270Z,31.55
2018-08-16T09:50:54.684Z,30.38
2018-08-16T09:53:24.386Z,29.36
2018-08-16T09:55:53.247Z,30.64
2018-08-16T09:58:22.177Z,29.05
2018-08-16T10:01:25.109Z,30.77
2018-08-16T10:03:54.205Z,30.82
2018-08-16T10:06:22.599Z,31.74
2018-08-16T10:08:51.200Z,31.95
2018-08-16T10:11:20.365Z,32.17
2018-08-16T10:13:50.420Z,31.25
2018-08-16T10:16:20.026Z,31.94
2018-08-16T10:18:49.997Z,31.78
2018-08-16T10:21:19.590Z,31.14
2018-08-16T10:23:49.168Z,31.76
2018-08-16T10:26:19.146Z,31.85
2018-08-16T10:28:48.948Z,32.62
2018-08-16T10:31:18.415Z,32.56
2018-08-16T10:33:47.336Z,29.95
2018-08-16T10:36:16.412Z,32.12
2018-08-16T10:38:46.556Z,32.19
2018-08-16T10:44:46.401Z,32.71
2018-08-16T10:47:16.037Z,32.40
2018-08-16T10:49:46.799Z,31.21
2018-08-16T10:52:15.852Z,30.20
2018-08-16T10:54:44.196Z,30.97
2018-08-16T10:57:13.527Z,32.20
2018-08-16T10:59:42.712Z,32.17
2018-08-16T11:02:11.690Z,32.12
2018-08-16T11:04:40.049Z,31.68
2018-08-16T11:07:14.523Z,31.64
2018-08-16T11:09:43.873Z,31.02
2018-08-16T11:12:15.749Z,31.41
2018-08-16T11:14:45.061Z,30.54
2018-08-16T11:17:14.740Z,30.67
2018-08-16T11:19:43.068Z,31.37
2018-08-16T11:22:11.941Z,33.01
2018-08-16T11:24:42.056Z,32.08
2018-08-16T11:27:11.393Z,32.92
2018-08-16T11:29:41.645Z,32.83
2018-08-16T11:32:10.650Z,32.76
2018-08-16T11:34:39.540Z,32.88
2018-08-16T11:37:09.203Z,33.09
2018-08-16T11:39:38.307Z,32.68
2018-08-16T11:42:08.831Z,31.78
2018-08-16T11:44:37.391Z,32.10
2018-08-16T11:47:07.148Z,32.90
2018-08-16T11:49:37.351Z,32.41
2018-08-16T11:52:06.597Z,32.36
2018-08-16T11:54:35.195Z,32.20
2018-08-16T11:57:05.106Z,32.91
2018-08-16T11:59:33.896Z,32.14
2018-08-16T12:02:03.055Z,33.28
2018-08-16T12:04:32.881Z,32.29
2018-08-16T12:07:03.450Z,32.97
2018-08-16T12:09:33.009Z,34.05
2018-08-16T12:12:01.513Z,34.30
2018-08-16T12:14:31.134Z,33.55
2018-08-16T12:16:59.587Z,32.99
2018-08-16T12:19:27.921Z,33.03
2018-08-16T12:21:57.953Z,34.63
2018-08-16T12:24:26.302Z,33.50
2018-08-16T12:26:55.578Z,34.40
2018-08-16T12:29:25.927Z,34.60
2018-08-16T12:31:55.932Z,33.79
2018-08-16T12:34:24.869Z,34.47
2018-08-16T12:36:53.919Z,34.04
2018-08-16T12:39:22.894Z,34.78
2018-08-16T12:41:52.364Z,34.53
2018-08-16T12:44:20.632Z,34.45
2018-08-16T12:46:49.060Z,33.68
2018-08-16T12:49:17.644Z,34.77
2018-08-16T12:51:46.522Z,35.02
2018-08-16T12:54:16.614Z,34.23
2018-08-16T12:56:45.723Z,33.66
2018-08-16T12:59:15.392Z,34.42
2018-08-16T13:01:44.330Z,33.77
2018-08-16T13:04:14.682Z,33.07
2018-08-16T13:06:42.991Z,32.26
2018-08-16T13:09:11.363Z,33.33
2018-08-16T13:11:42.756Z,33.48
2018-08-16T13:14:11.370Z,33.13
2018-08-16T13:16:41.253Z,33.14
2018-08-16T13:19:10.076Z,32.84
2018-08-16T13:21:38.467Z,33.22
2018-08-16T13:24:07.367Z,31.30
2018-08-16T13:27:07.868Z,32.59
2018-08-16T13:29:37.228Z,33.55
2018-08-16T13:32:07.254Z,34.27
2018-08-16T13:34:37.425Z,33.70
2018-08-16T13:37:06.521Z,33.48
2018-08-16T13:39:35.461Z,33.06
2018-08-16T13:42:05.295Z,33.65
2018-08-16T13:44:33.664Z,34.25
2018-08-16T13:47:05.045Z,34.47
2018-08-16T13:49:33.501Z,33.42
2018-08-16T13:52:04.064Z,33.94
2018-08-16T13:54:32.995Z,34.00
2018-08-16T13:57:01.387Z,33.72
2018-08-16T13:59:30.219Z,33.47
2018-08-16T14:02:01.173Z,33.87
2018-08-16T14:04:32.075Z,33.44
2018-08-16T14:07:01.120Z,31.98
2018-08-16T14:09:30.424Z,31.64
2018-08-16T14:12:00.028Z,32.11
2018-08-16T14:14:28.867Z,31.14
2018-08-16T14:16:57.764Z,30.19
2018-08-16T14:22:58.368Z,30.34
2018-08-16T14:25:26.709Z,30.50
2018-08-16T14:27:55.076Z,29.93
2018-08-16T14:30:24.773Z,30.28
2018-08-16T14:32:56.729Z,30.68
2018-08-16T14:35:25.744Z,30.86
2018-08-16T14:37:55.625Z,30.66
2018-08-16T14:40:24.301Z,30.45
2018-08-16T14:42:53.004Z,30.19
2018-08-16T14:45:23.125Z,30.40
2018-08-16T14:47:51.572Z,30.71
2018-08-16T14:50:21.332Z,30.56
2018-08-16T14:52:51.108Z,30.71
2018-08-16T14:55:20.771Z,30.45
2018-08-16T14:57:50.128Z,30.33
2018-08-16T15:00:19.479Z,30.79
2018-08-16T15:02:49.591Z,29.84
2018-08-16T15:05:18.415Z,29.73
2018-08-16T15:07:48.147Z,30.36
2018-08-16T15:10:17.029Z,30.43
2018-08-16T15:12:47.283Z,30.52
2018-08-16T15:15:16.056Z,30.50
2018-08-16T15:17:49.907Z,30.47
2018-08-16T15:20:19.536Z,30.33
2018-08-16T15:22:49.340Z,29.98
2018-08-16T15:25:19.533Z,30.33
2018-08-16T15:27:48.905Z,30.12
2018-08-16T15:30:18.517Z,30.05
2018-08-16T15:32:48.652Z,29.74
2018-08-16T15:35:18.463Z,29.81
2018-08-16T15:37:47.800Z,29.92
2018-08-16T15:40:18.342Z,29.55
2018-08-16T15:42:48.571Z,29.41
2018-08-16T15:45:19.974Z,29.37
2018-08-16T15:47:49.468Z,29.27
2018-08-16T15:50:17.903Z,29.16
2018-08-16T15:52:46.300Z,29.87
2018-08-16T15:55:15.811Z,29.36
2018-08-16T15:57:45.580Z,29.18
2018-08-16T16:00:13.925Z,29.11
2018-08-16T16:02:44.195Z,29.34
2018-08-16T16:05:13.473Z,29.07
2018-08-16T16:07:42.759Z,29.64
2018-08-16T16:10:14.424Z,29.64
2018-08-16T16:12:45.895Z,29.57
2018-08-16T16:15:20.535Z,29.62
2018-08-16T16:17:49.940Z,29.65
2018-08-16T16:20:19.547Z,29.41
2018-08-16T16:22:50.340Z,29.37
2018-08-16T16:25:21.124Z,29.56
2018-08-16T16:27:50.812Z,29.23
2018-08-16T16:30:19.589Z,29.36
2018-08-16T16:32:51.528Z,29.21
2018-08-16T16:35:20.645Z,28.99
2018-08-16T16:37:50.629Z,29.06
2018-08-16T16:40:20.699Z,29.39
2018-08-16T16:42:50.460Z,29.29
2018-08-16T16:45:19.811Z,29.45
2018-08-16T16:47:49.088Z,29.26
2018-08-16T16:50:19.160Z,28.97
2018-08-16T16:52:49.011Z,29.09
2018-08-16T16:55:17.856Z,29.01
2018-08-16T16:57:47.634Z,28.90
2018-08-16T17:00:16.408Z,28.86
2018-08-16T17:02:46.432Z,29.02
2018-08-16T17:05:15.041Z,28.92
2018-08-16T17:07:44.672Z,28.74
2018-08-16T17:10:15.384Z,29.08
2018-08-16T17:12:45.756Z,28.93
2018-08-16T17:15:14.152Z,28.91
2018-08-16T17:17:43.279Z,28.78
2018-08-16T17:20:13.289Z,28.83
2018-08-16T17:22:43.696Z,27.90
2018-08-16T17:25:12.680Z,28.38
2018-08-16T17:27:42.517Z,28.50
2018-08-16T17:30:12.036Z,28.59
2018-08-16T17:32:40.506Z,28.40
2018-08-16T17:35:09.384Z,28.36
2018-08-16T17:37:38.788Z,28.19
2018-08-16T17:40:07.476Z,27.93
2018-08-16T17:42:36.577Z,27.98
2018-08-16T17:45:05.376Z,27.72
2018-08-16T17:47:33.836Z,27.38
2018-08-16T17:50:02.213Z,27.20
2018-08-16T17:52:31.294Z,26.91
2018-08-16T17:55:00.499Z,26.84
2018-08-16T17:57:30.464Z,26.55
2018-08-16T17:59:59.895Z,26.37
2018-08-16T18:02:29.449Z,26.23
2018-08-16T18:04:59.132Z,26.11
2018-08-16T18:07:33.699Z,26.05
2018-08-16T18:10:03.573Z,25.99
2018-08-16T18:12:32.543Z,25.88
2018-08-16T18:39:02.435Z,24.10
2018-08-16T18:41:32.216Z,23.86
2018-08-16T18:44:06.584Z,23.82
2018-08-16T18:46:42.228Z,23.52
2018-08-16T18:49:11.688Z,23.41
2018-08-16T18:51:47.884Z,23.30
2018-08-16T18:54:23.943Z,23.21
2018-08-16T18:56:54.348Z,23.15
2018-08-16T18:59:26.985Z,23.20
2018-08-16T19:01:58.601Z,23.13
2018-08-16T19:04:28.943Z,22.87
2018-08-16T19:06:58.259Z,22.51
2018-08-16T19:09:29.668Z,22.49
2018-08-16T19:12:00.122Z,22.39
2018-08-16T19:14:30.232Z,22.36
2018-08-16T19:17:01.628Z,22.14
2018-08-16T19:19:34.082Z,22.12
2018-08-16T19:22:03.266Z,22.12
2018-08-16T19:24:33.484Z,22.03
2018-08-16T19:27:05.114Z,21.85
2018-08-16T19:29:35.536Z,21.76
2018-08-16T19:32:10.208Z,21.78
2018-08-16T19:34:39.856Z,21.67
2018-08-16T19:37:10.252Z,21.64
2018-08-16T19:39:43.824Z,21.68
2018-08-16T19:42:12.958Z,21.73
2018-08-16T19:44:47.117Z,21.62
2018-08-16T19:47:15.645Z,21.53
2018-08-16T19:49:44.918Z,21.47
2018-08-16T19:52:15.332Z,21.38
2018-08-16T19:54:50.263Z,21.30
2018-08-16T19:57:20.904Z,21.13
2018-08-16T19:59:57.176Z,21.09
2018-08-16T20:02:26.864Z,21.14
2018-08-16T20:04:58.555Z,21.25
2018-08-16T20:07:27.198Z,21.10
2018-08-16T20:10:01.723Z,20.88
2018-08-16T20:12:35.808Z,20.65
2018-08-16T20:15:06.283Z,20.57
2018-08-16T20:17:36.079Z,20.54
2018-08-16T20:20:13.105Z,20.42
2018-08-16T20:22:44.364Z,20.43
2018-08-16T20:25:19.878Z,20.34
2018-08-16T20:27:50.595Z,20.36
2018-08-16T20:30:21.959Z,20.36
2018-08-16T20:32:51.471Z,20.34
2018-08-16T20:35:23.997Z,20.23
2018-08-16T20:37:54.071Z,20.16
2018-08-16T20:40:29.502Z,20.05
2018-08-16T20:42:59.692Z,20.01
2018-08-16T20:45:31.824Z,19.99
2018-08-16T20:48:02.594Z,19.90
2018-08-16T20:50:32.636Z,19.77
2018-08-16T20:53:01.696Z,19.75
2018-08-16T20:55:32.190Z,19.71
2018-08-16T20:58:01.655Z,19.66
2018-08-16T21:00:32.304Z,19.62
2018-08-16T21:03:05.173Z,19.60
2018-08-16T21:05:36.820Z,19.57
2018-08-16T21:08:09.184Z,19.49
2018-08-16T21:10:41.592Z,19.58
2018-08-16T21:13:12.545Z,19.55
2018-08-16T21:15:46.150Z,19.28
2018-08-16T21:18:15.528Z,19.23
2018-08-16T21:20:46.100Z,19.40
2018-08-16T21:23:19.113Z,19.43
2018-08-16T21:25:49.768Z,19.44
2018-08-16T21:28:19.208Z,19.45
2018-08-16T21:30:54.020Z,19.39
2018-08-16T21:33:24.573Z,19.35
2018-08-16T21:35:55.700Z,19.17
2018-08-16T21:38:27.697Z,19.02
2018-08-16T21:40:58.321Z,19.00
2018-08-16T21:43:30.086Z,18.96
2018-08-16T21:46:00.157Z,18.90
2018-08-16T21:48:31.256Z,18.90
2018-08-16T21:51:04.045Z,18.93
2018-08-16T21:53:35.713Z,18.88
2018-08-16T21:56:06.258Z,18.87
2018-08-16T21:58:42.502Z,18.81
2018-08-16T22:01:14.470Z,18.70
2018-08-16T22:03:45.664Z,18.63
2018-08-16T22:06:28.285Z,18.66
2018-08-16T22:08:58.493Z,18.68
2018-08-16T22:11:29.337Z,18.61
2018-08-16T22:14:00.707Z,18.56
2018-08-16T22:16:30.808Z,18.30
2018-08-16T22:19:02.627Z,18.51
2018-08-16T22:21:31.943Z,18.51
2018-08-16T22:24:08.887Z,18.47
2018-08-16T22:26:40.197Z,18.46
2018-08-16T22:29:10.401Z,18.43
2018-08-16T22:31:52.412Z,18.35
2018-08-16T22:34:23.084Z,18.37
2018-08-16T22:36:53.292Z,18.36
2018-08-16T22:39:23.575Z,18.31
2018-08-16T22:41:54.804Z,18.19
2018-08-16T22:44:24.915Z,17.93
2018-08-16T22:46:54.808Z,17.80
2018-08-16T22:49:24.508Z,17.86
2018-08-16T22:51:55.690Z,17.81
2018-08-16T22:54:25.256Z,17.74
2018-08-16T22:56:57.976Z,17.60
2018-08-16T22:59:28.908Z,17.64
2018-08-16T23:02:00.479Z,17.66
2018-08-16T23:04:32.748Z,17.49
2018-08-16T23:07:01.989Z,17.53
2018-08-16T23:09:31.432Z,17.71
2018-08-16T23:12:01.720Z,17.84
2018-08-16T23:14:32.502Z,17.85
2018-08-16T23:17:02.904Z,17.85
2018-08-16T23:19:35.871Z,17.86
2018-08-16T23:22:08.308Z,17.84
2018-08-16T23:24:45.765Z,17.83
2018-08-16T23:27:15.513Z,17.81
2018-08-16T23:29:46.599Z,17.75
2018-08-16T23:32:18.396Z,17.70
2018-08-16T23:34:50.576Z,17.78
2018-08-16T23:37:19.879Z,17.76
2018-08-16T23:39:57.152Z,17.84
2018-08-16T23:42:26.208Z,17.80
2018-08-16T23:44:58.000Z,17.29
2018-08-16T23:47:29.969Z,17.33
2018-08-16T23:49:59.772Z,17.21
2018-08-16T23:52:30.425Z,17.09
2018-08-16T23:55:01.164Z,17.18
2018-08-16T23:57:31.584Z,17.24
